ACL157 KFAT-KSFO
Flight info
| Callsign | ACL157 |
|---|---|
| Flight time | N/A |
| Altitude | 20000 |
| Route | NTELL ALWYS CEDES ARCHI DYAMD5 |
| Aircraft | MD82/M-SDFGIRWY/C |
Departure
| Time | 2026-04-18 08:11 |
|---|---|
| Airport | Fresno Yosemite International Airport (KFAT) |
Arrival
| Time | N/A |
|---|---|
| Airport | San Francisco International Airport (KSFO) |
| Time | Latitude | Longitude | Altitude | Speed | Heading |
|---|---|---|---|---|---|
| 2026-04-18 07:38 | 36.77121 | -119.71958 | 351 ft | 0 kts | 146° |
| 2026-04-18 08:00 | 36.77129 | -119.71964 | 341 ft | 4 kts | 149° |
| 2026-04-18 08:00 | 36.77152 | -119.71979 | 347 ft | 4 kts | 158° |
| 2026-04-18 08:00 | 36.77176 | -119.71989 | 341 ft | 4 kts | 167° |
| 2026-04-18 08:01 | 36.77202 | -119.71995 | 345 ft | 4 kts | 176° |
| 2026-04-18 08:01 | 36.77228 | -119.71994 | 349 ft | 4 kts | 186° |
| 2026-04-18 08:01 | 36.77253 | -119.71989 | 341 ft | 4 kts | 194° |
| 2026-04-18 08:01 | 36.77278 | -119.71980 | 348 ft | 4 kts | 199° |
| 2026-04-18 08:02 | 36.77303 | -119.71969 | 350 ft | 4 kts | 197° |
| 2026-04-18 08:02 | 36.77326 | -119.71964 | 346 ft | 4 kts | 171° |
| 2026-04-18 08:02 | 36.77337 | -119.71969 | 343 ft | 0 kts | 128° |
| 2026-04-18 08:04 | 36.77332 | -119.71961 | 347 ft | 4 kts | 128° |
| 2026-04-18 08:05 | 36.77311 | -119.71926 | 341 ft | 5 kts | 126° |
| 2026-04-18 08:05 | 36.77298 | -119.71882 | 341 ft | 5 kts | 84° |
| 2026-04-18 08:05 | 36.77313 | -119.71838 | 337 ft | 5 kts | 58° |
| 2026-04-18 08:05 | 36.77322 | -119.71795 | 345 ft | 5 kts | 102° |
| 2026-04-18 08:06 | 36.77305 | -119.71742 | 341 ft | 10 kts | 121° |
| 2026-04-18 08:06 | 36.77249 | -119.71642 | 341 ft | 18 kts | 125° |
| 2026-04-18 08:06 | 36.77171 | -119.71499 | 338 ft | 15 kts | 127° |
| 2026-04-18 08:06 | 36.77107 | -119.71394 | 338 ft | 15 kts | 126° |
| 2026-04-18 08:07 | 36.77045 | -119.71283 | 339 ft | 16 kts | 125° |
| 2026-04-18 08:07 | 36.76980 | -119.71173 | 339 ft | 16 kts | 127° |
| 2026-04-18 08:07 | 36.76915 | -119.71062 | 340 ft | 16 kts | 125° |
| 2026-04-18 08:07 | 36.76851 | -119.70949 | 340 ft | 15 kts | 125° |
| 2026-04-18 08:08 | 36.76792 | -119.70844 | 339 ft | 15 kts | 124° |
| 2026-04-18 08:08 | 36.76760 | -119.70724 | 341 ft | 15 kts | 90° |
| 2026-04-18 08:08 | 36.76761 | -119.70612 | 339 ft | 11 kts | 89° |
| 2026-04-18 08:08 | 36.76762 | -119.70526 | 339 ft | 10 kts | 88° |
| 2026-04-18 08:09 | 36.76796 | -119.70456 | 339 ft | 10 kts | 38° |
| 2026-04-18 08:09 | 36.76838 | -119.70419 | 349 ft | 7 kts | 35° |
| 2026-04-18 08:09 | 36.76878 | -119.70396 | 346 ft | 6 kts | 2° |
| 2026-04-18 08:09 | 36.76913 | -119.70413 | 344 ft | 5 kts | 319° |
| 2026-04-18 08:10 | 36.76940 | -119.70456 | 354 ft | 14 kts | 307° |
| 2026-04-18 08:10 | 36.77052 | -119.70665 | 347 ft | 49 kts | 305° |
| 2026-04-18 08:10 | 36.77370 | -119.71211 | 340 ft | 107 kts | 306° |
| 2026-04-18 08:10 | 36.77912 | -119.72155 | 339 ft | 159 kts | 305° |
| 2026-04-18 08:11 | 36.78621 | -119.73413 | 538 ft | 187 kts | 305° |
| 2026-04-18 08:11 | 36.79192 | -119.74829 | 1217 ft | 190 kts | 279° |
| 2026-04-18 08:11 | 36.79649 | -119.76409 | 1827 ft | 194 kts | 304° |
| 2026-04-18 08:11 | 36.80556 | -119.77575 | 2724 ft | 188 kts | 322° |
| 2026-04-18 08:12 | 36.81442 | -119.78388 | 3494 ft | 176 kts | 323° |
| 2026-04-18 08:12 | 36.82386 | -119.79345 | 4061 ft | 179 kts | 319° |
| 2026-04-18 08:12 | 36.83350 | -119.80414 | 4322 ft | 193 kts | 317° |
| 2026-04-18 08:12 | 36.84377 | -119.81610 | 4495 ft | 214 kts | 316° |
| 2026-04-18 08:13 | 36.85513 | -119.82984 | 4607 ft | 239 kts | 315° |
| 2026-04-18 08:13 | 36.86730 | -119.84519 | 4884 ft | 258 kts | 314° |
| 2026-04-18 08:13 | 36.88003 | -119.86187 | 5236 ft | 272 kts | 313° |
| 2026-04-18 08:13 | 36.89294 | -119.87934 | 5844 ft | 274 kts | 312° |
| 2026-04-18 08:14 | 36.90575 | -119.89705 | 6488 ft | 276 kts | 312° |
| 2026-04-18 08:14 | 36.91859 | -119.91511 | 7088 ft | 280 kts | 311° |
| 2026-04-18 08:14 | 36.93155 | -119.93344 | 7719 ft | 282 kts | 311° |
| 2026-04-18 08:14 | 36.94418 | -119.95138 | 8316 ft | 285 kts | 311° |
| 2026-04-18 08:15 | 36.95729 | -119.97009 | 8908 ft | 287 kts | 311° |
| 2026-04-18 08:15 | 36.97047 | -119.98903 | 9493 ft | 290 kts | 310° |
| 2026-04-18 08:15 | 36.98369 | -120.00813 | 10089 ft | 291 kts | 310° |
| 2026-04-18 08:15 | 36.99725 | -120.02780 | 10339 ft | 308 kts | 310° |
| 2026-04-18 08:16 | 37.01160 | -120.04868 | 10517 ft | 325 kts | 310° |
| 2026-04-18 08:16 | 37.02673 | -120.07064 | 10701 ft | 341 kts | 310° |
| 2026-04-18 08:16 | 37.04252 | -120.09351 | 10987 ft | 352 kts | 310° |
| 2026-04-18 08:16 | 37.05857 | -120.11676 | 11579 ft | 353 kts | 310° |
| 2026-04-18 08:17 | 37.07464 | -120.14003 | 12218 ft | 353 kts | 311° |
| 2026-04-18 08:17 | 37.09072 | -120.16335 | 12799 ft | 354 kts | 310° |
| 2026-04-18 08:17 | 37.10690 | -120.18680 | 13341 ft | 357 kts | 310° |
| 2026-04-18 08:17 | 37.12315 | -120.21037 | 13890 ft | 359 kts | 310° |
| 2026-04-18 08:18 | 37.13950 | -120.23407 | 14453 ft | 360 kts | 310° |
| 2026-04-18 08:18 | 37.15587 | -120.25784 | 14958 ft | 362 kts | 310° |
| 2026-04-18 08:18 | 37.17237 | -120.28178 | 15478 ft | 364 kts | 310° |
| 2026-04-18 08:18 | 37.18849 | -120.30518 | 15731 ft | 341 kts | 310° |
| 2026-04-18 08:19 | 37.19524 | -120.31500 | 15683 ft | 330 kts | 310° |